Airfield :







YOU CAN JOIN US ON...

 
LOGIN :

Register | Disclaimer

   EN    FR    IT 

 









Legend :    VFR   Marginal VFR   IFR   Intensive IFR   Very Intensive IFR
Visi :
Ceiling :
>= 8 km
>= 3000ft
5 to 8 km
1000 to 3000 ft
1500m to 5 km
500 to 1000 ft
800 to 1500m
200 to 500 ft
< 800m
< 200 ft
Symbols :   Thunderstorms  Fog  Heavy snow  Heavy precipitations  Wind > 20 kt






- Airport Elevation : 141 ft
- IATA code : YQI


CYQI - Yarmouth

CURRENT METAR :
  • 242200Z 31002KT 15SM FEW150 SCT250 01/M01 A3046 RMK AC1CI3 SLP317

EXPIRED METARs :
  • 242100Z 13002KT 15SM SCT260 04/M01 A3044 RMK CI4 SLP310
  • 242000Z 11006KT 15SM FEW150 BKN250 05/M01 A3044 RMK AC2CI4 SLP310

TAF TAF CYQI
Valid from the 24 at 18:00 until the 25 at 06:00 UTC


241742Z 2418/2506 09008KT P6SM FEW160 OVC250
FM250200 08008KT P6SM SCT020
PROB30 2502/2506 2SM BR BKN020 RMK NXT FCST BY 250000Z



MET'MAP, your aeronautical weather chart ! - Copyright ORBIFLY December 2007 - Disclaimer

ORBIFLY MET'MAP TEAM :

Programming & Development : Alexandra Zaïnal
Concept & original design : Baudouin d'Aumeries
Assistance for programming : Marc-Olivier Méhu
Technical & hardware support : Manuel Goepfert

Contact : metmap@orbifly.com




SOURCES & CREDITS :

   NOAA